Time;durP1;ratioP1;P1;durP2;ratioP2;P2;SDS_P1;SDS_P2;PMS_P1;PMS_P2;Temp;Humidity;BMP_temperature;BMP_pressure;BME280_temperature;BME280_humidity;BME280_pressure;Samples;Min_cycle;Max_cycle;Signal;HPM_P1;HPM_P2
2023/08/26 11:45:40;;;;;;;;;;;25.20;63.70;;;24.68;58.38;96163.00;5617738;23;19928;-86
2023/08/26 11:48:11;;;;;;;;;;;25.20;63.70;;;24.71;57.66;96162.31;4858235;29;19928;-86
2023/08/26 11:50:40;;;;;;;;;;;25.20;63.00;;;24.69;58.15;96159.06;4842514;29;19936;-86
2023/08/26 11:53:11;;;;;;;;;;;25.20;63.50;;;24.69;58.04;96147.88;4850210;29;20420;-86
2023/08/26 11:55:40;;;;;;;;;;;25.20;63.50;;;24.69;57.93;96150.66;4850546;29;20297;-86
2023/08/26 11:58:09;;;;;;;;;;;25.20;63.50;;;24.69;57.96;96147.88;4850352;29;19928;-86
2023/08/26 12:00:38;;;;;;;;;;;25.20;63.50;;;24.67;57.94;96148.19;4850147;29;20390;-86
2023/08/26 12:03:08;;;;;;;;;;;25.20;63.40;;;24.71;58.05;96139.91;4847033;29;19936;-86
2023/08/26 12:05:43;;;;;;;;;;;25.20;63.30;;;24.69;57.56;96136.66;4828674;29;19929;-86
2023/08/26 12:08:15;;;;;;;;;;;25.20;63.00;;;24.72;55.76;96144.31;4831380;29;20321;-87
2023/08/26 12:10:48;;;;;;;;;;;25.20;60.70;;;24.73;57.45;96142.34;4830882;29;19928;-87
2023/08/26 12:13:17;;;;;;;;;;;25.30;62.80;;;24.76;57.86;96142.41;4828327;29;19935;-87
2023/08/26 12:15:45;;;;;;;;;;;25.30;63.00;;;24.76;57.32;96136.81;4826979;29;19928;-87
2023/08/26 12:18:15;;;;;;;;;;;25.30;62.60;;;24.77;56.64;96132.84;4833496;29;20393;-87
2023/08/26 12:20:46;;;;;;;;;;;25.30;61.70;;;24.78;57.14;96134.47;4834755;29;19928;-87
2023/08/26 12:23:14;;;;;;;;;;;25.30;62.10;;;24.80;57.39;96136.88;4834251;29;19928;-87
2023/08/26 12:25:46;;;;;;;;;;;25.30;62.50;;;24.80;57.47;96132.13;4834910;29;19929;-87
2023/08/26 12:28:17;;;;;;;;;;;25.30;62.60;;;24.79;57.03;96129.66;4834508;29;19928;-87
2023/08/26 12:30:49;;;;;;;;;;;25.30;62.10;;;24.79;57.45;96124.06;4834324;29;19928;-87
2023/08/26 12:33:21;;;;;;;;;;;25.40;62.70;;;24.79;57.69;96129.66;4816844;29;19936;-87
2023/08/26 12:35:52;;;;;;;;;;;25.30;62.70;;;24.78;57.47;96122.47;4831205;29;20463;-87
2023/08/26 12:38:23;;;;;;;;;;;25.30;62.50;;;24.77;57.37;96118.06;4834700;29;19935;-86
2023/08/26 12:40:51;;;;;;;;;;;25.30;62.50;;;24.76;57.24;96113.63;4834299;29;19932;-87
2023/08/26 12:43:22;;;;;;;;;;;25.30;62.50;;;24.76;57.41;96108.81;4849218;29;20472;-87
2023/08/26 12:45:54;;;;;;;;;;;25.30;62.50;;;24.73;57.31;96109.53;4833256;29;20366;-87
2023/08/26 12:48:29;;;;;;;;;;;25.30;62.40;;;24.74;57.28;96116.78;4849400;29;19928;-87
2023/08/26 12:50:58;;;;;;;;;;;25.30;62.50;;;24.70;57.38;96109.47;4834146;29;19929;-87
2023/08/26 12:53:29;;;;;;;;;;;25.30;62.60;;;24.71;57.70;96111.94;4834232;29;19928;-87
2023/08/26 12:55:58;;;;;;;;;;;25.20;62.80;;;24.70;57.56;96109.47;4849510;29;19935;-87
2023/08/26 12:58:30;;;;;;;;;;;25.30;62.70;;;24.69;57.34;96103.06;4834773;29;19928;-87
2023/08/26 13:01:01;;;;;;;;;;;25.20;62.70;;;24.71;57.53;96111.94;4834284;29;20378;-87
2023/08/26 13:03:34;;;;;;;;;;;25.20;62.80;;;24.70;57.54;96104.69;4833659;29;19929;-86
2023/08/26 13:06:05;;;;;;;;;;;25.20;62.70;;;24.70;57.45;96087.06;4834125;29;19955;-86
2023/08/26 13:08:35;;;;;;;;;;;25.20;62.60;;;24.69;57.08;96100.28;4832903;29;19936;-86
2023/08/26 13:11:03;;;;;;;;;;;25.20;62.60;;;24.67;57.56;96102.59;4833697;29;19928;-86
2023/08/26 13:13:34;;;;;;;;;;;25.20;62.70;;;24.65;57.22;96094.56;4850209;29;20273;-86
2023/08/26 13:16:03;;;;;;;;;;;25.20;62.70;;;24.67;57.57;96097.00;4829836;29;19935;-86
2023/08/26 13:18:33;;;;;;;;;;;25.20;62.80;;;24.67;57.54;96103.41;4834123;29;19939;-86
2023/08/26 13:21:03;;;;;;;;;;;25.20;62.80;;;24.65;57.51;96090.94;4849045;29;20313;-86
2023/08/26 13:23:33;;;;;;;;;;;25.20;62.80;;;24.66;57.52;96092.56;4848833;29;19936;-86
2023/08/26 13:26:11;;;;;;;;;;;25.20;63.00;;;24.66;57.70;96092.56;4848926;29;19951;-86
2023/08/26 13:28:43;;;;;;;;;;;25.20;63.00;;;24.68;57.56;96095.81;4848823;29;19936;-86
2023/08/26 13:31:11;;;;;;;;;;;25.20;62.80;;;24.69;57.85;96096.63;4833335;29;19932;-88
2023/08/26 13:33:41;;;;;;;;;;;25.20;62.90;;;24.69;57.38;96096.63;4820644;29;19929;-86
2023/08/26 13:36:10;;;;;;;;;;;25.20;62.80;;;24.69;57.54;96099.41;4824552;29;19935;-86
2023/08/26 13:38:46;;;;;;;;;;;25.20;62.80;;;24.70;57.33;96093.50;4835919;29;19928;-86
2023/08/26 13:41:35;;;;;;;;;;;25.20;62.70;;;24.70;57.29;96096.31;4837485;29;19929;-86
2023/08/26 13:44:18;;;;;;;;;;;25.20;62.40;;;24.70;57.41;96087.06;4816332;29;19932;-86
2023/08/26 13:46:49;;;;;;;;;;;25.30;62.70;;;24.73;57.56;96091.94;4826962;29;19928;-86
2023/08/26 13:49:27;;;;;;;;;;;25.30;62.70;;;24.71;57.25;96095.13;4832811;29;19939;-87
2023/08/26 13:51:55;;;;;;;;;;;25.30;62.50;;;24.71;57.28;96091.50;4825992;29;19935;-87
2023/08/26 13:54:27;;;;;;;;;;;25.20;62.40;;;24.73;55.76;96087.16;4827078;29;19936;-87
2023/08/26 13:56:57;;;;;;;;;;;25.30;60.60;;;24.73;56.93;96080.75;4832937;29;19935;-86
2023/08/26 13:59:32;;;;;;;;;;;25.30;62.10;;;24.74;56.13;96088.78;4820003;29;19935;-87
2023/08/26 14:02:00;;;;;;;;;;;25.30;61.00;;;24.77;56.92;96087.25;4833227;29;19932;-87
2023/08/26 14:04:30;;;;;;;;;;;25.30;62.10;;;24.76;56.95;96078.03;4833344;29;19928;-87
2023/08/26 14:06:59;;;;;;;;;;;25.30;62.20;;;24.76;56.83;96075.22;4833232;29;19944;-87
2023/08/26 14:09:30;;;;;;;;;;;25.30;62.00;;;24.77;57.01;96076.84;4833360;29;19928;-87
2023/08/26 14:12:00;;;;;;;;;;;25.30;62.10;;;24.74;57.04;96071.97;4827033;29;19936;-87
2023/08/26 14:14:29;;;;;;;;;;;25.30;62.20;;;24.73;56.95;96070.34;4833410;29;19935;-87
2023/08/26 14:16:58;;;;;;;;;;;25.30;62.20;;;24.74;57.38;96071.97;4833201;29;20413;-87
2023/08/26 14:19:27;;;;;;;;;;;25.30;62.40;;;24.73;57.17;96075.97;4825798;29;19935;-87
2023/08/26 14:21:58;;;;;;;;;;;25.30;62.40;;;24.71;57.16;96074.72;4833059;29;19928;-87
2023/08/26 14:24:27;;;;;;;;;;;25.20;62.40;;;24.70;57.47;96073.91;4833215;29;19935;-87
2023/08/26 14:26:55;;;;;;;;;;;25.30;62.50;;;24.69;57.26;96069.50;4832993;29;19928;-87
2023/08/26 14:29:24;;;;;;;;;;;25.20;62.60;;;24.70;57.10;96071.13;4840877;29;19928;-87
2023/08/26 14:31:54;;;;;;;;;;;25.20;62.60;;;24.70;57.30;96070.28;4831631;29;19928;-87
2023/08/26 14:34:23;;;;;;;;;;;25.20;62.70;;;24.69;57.34;96063.88;4848079;29;19933;-87
2023/08/26 14:36:53;;;;;;;;;;;25.20;62.70;;;24.68;57.43;96065.03;4832448;29;19928;-87
2023/08/26 14:39:22;;;;;;;;;;;25.20;62.70;;;24.69;57.60;96058.28;4832779;29;19936;-87
2023/08/26 14:41:51;;;;;;;;;;;25.20;62.80;;;24.68;57.55;96062.22;4832652;29;19929;-87
2023/08/26 14:44:22;;;;;;;;;;;25.20;62.90;;;24.70;57.53;96065.50;4848365;29;19936;-86
2023/08/26 14:46:50;;;;;;;;;;;25.20;62.90;;;24.67;57.24;96067.00;4825587;29;19935;-87
2023/08/26 14:49:19;;;;;;;;;;;25.20;62.50;;;24.67;57.85;96055.00;4832689;29;19935;-87
2023/08/26 14:51:58;;;;;;;;;;;25.20;63.00;;;24.67;57.78;96057.81;4833452;29;19928;-87
2023/08/26 14:54:28;;;;;;;;;;;25.20;63.00;;;24.69;57.67;96058.28;4832836;29;19936;-87
2023/08/26 14:57:02;;;;;;;;;;;25.20;62.90;;;24.69;57.26;96058.28;4832719;29;19929;-87
2023/08/26 14:59:53;;;;;;;;;;;25.20;63.00;;;24.70;57.73;96065.50;4837537;29;19932;-87
2023/08/26 15:02:23;;;;;;;;;;;25.20;63.00;;;24.65;57.65;96049.78;4842302;29;19928;-87
2023/08/26 15:04:52;;;;;;;;;;;25.20;63.00;;;24.68;57.87;96056.63;4832317;29;19928;-87
2023/08/26 15:07:23;;;;;;;;;;;25.20;63.00;;;24.67;57.61;96049.41;4824560;29;19936;-87
2023/08/26 15:09:53;;;;;;;;;;;25.20;63.10;;;24.65;57.71;96051.75;4822017;29;19929;-87
2023/08/26 15:12:21;;;;;;;;;;;25.20;63.00;;;24.65;57.70;96051.75;4834239;29;19928;-87
2023/08/26 15:14:50;;;;;;;;;;;25.20;63.10;;;24.65;57.73;96055.38;4829748;29;20417;-87
2023/08/26 15:17:21;;;;;;;;;;;25.20;63.10;;;24.65;57.63;96048.97;4834077;29;19935;-87
2023/08/26 15:19:51;;;;;;;;;;;25.20;63.00;;;24.64;57.72;96050.97;4835566;29;20019;-87
2023/08/26 15:22:20;;;;;;;;;;;25.20;63.00;;;24.67;57.64;96060.59;4835421;29;20321;-87
2023/08/26 15:24:48;;;;;;;;;;;25.20;63.10;;;24.66;57.80;96051.38;4835371;29;19928;-87
2023/08/26 15:27:24;;;;;;;;;;;25.20;63.10;;;24.64;57.72;96045.38;4835348;29;19928;-87
2023/08/26 15:29:53;;;;;;;;;;;25.20;63.20;;;24.63;57.88;96048.50;4850489;29;19935;-86
2023/08/26 15:32:21;;;;;;;;;;;25.20;63.10;;;24.63;57.95;96042.91;4834638;29;19935;-87
2023/08/26 15:34:49;;;;;;;;;;;25.20;63.20;;;24.65;57.87;96051.75;4835488;29;20578;-87
2023/08/26 15:37:18;;;;;;;;;;;25.20;63.20;;;24.63;57.87;96048.50;4835571;29;19928;-86
2023/08/26 15:39:47;;;;;;;;;;;25.20;63.30;;;24.62;57.88;96049.69;4835306;29;19936;-87
2023/08/26 15:42:15;;;;;;;;;;;25.20;63.30;;;24.61;57.97;96046.09;4834849;29;20321;-86
2023/08/26 15:44:48;;;;;;;;;;;25.20;63.30;;;24.60;58.09;96050.06;4835261;29;19928;-87
2023/08/26 15:47:17;;;;;;;;;;;25.20;63.40;;;24.61;58.30;96045.25;4850101;29;19928;-87
2023/08/26 15:49:49;;;;;;;;;;;25.10;63.40;;;24.60;57.98;96043.66;4834968;29;19935;-87
2023/08/26 15:52:20;;;;;;;;;;;25.20;63.50;;;24.59;57.95;96042.06;4833760;29;19929;-87
2023/08/26 15:55:03;;;;;;;;;;;25.20;63.50;;;24.61;57.90;96042.47;4834703;29;19936;-87
2023/08/26 15:57:54;;;;;;;;;;;25.10;63.40;;;24.60;58.13;96044.47;4839518;29;19935;-87
2023/08/26 16:01:17;;;;;;;;;;;25.10;63.50;;;24.60;58.02;96043.66;4835770;29;19928;-86
2023/08/26 16:04:11;;;;;;;;;;;25.10;63.60;;;24.57;58.18;96042.41;4850372;29;20305;-87
2023/08/26 16:06:46;;;;;;;;;;;25.10;63.60;;;24.59;58.27;96047.66;4806501;29;20421;-87
2023/08/26 16:09:15;;;;;;;;;;;25.10;63.60;;;24.58;58.34;96046.03;4835050;29;19928;-87
2023/08/26 16:11:44;;;;;;;;;;;25.10;63.70;;;24.57;58.19;96036.00;4834675;29;19932;-87
2023/08/26 16:14:18;;;;;;;;;;;25.10;63.70;;;24.57;58.26;96048.00;4849727;29;19929;-87
2023/08/26 16:16:53;;;;;;;;;;;25.10;63.80;;;24.56;58.10;96043.56;4828194;29;19929;-87
2023/08/26 16:19:22;;;;;;;;;;;25.10;63.80;;;24.55;58.50;96047.53;4834449;29;19928;-87
2023/08/26 16:21:50;;;;;;;;;;;25.10;63.90;;;24.54;58.43;96047.91;4849255;29;19936;-87
2023/08/26 16:24:18;;;;;;;;;;;25.10;64.00;;;24.54;58.70;96045.13;4834297;29;19928;-87
2023/08/26 16:26:49;;;;;;;;;;;25.10;64.00;;;24.52;58.53;96054.69;4834657;29;19928;-87
2023/08/26 16:29:18;;;;;;;;;;;25.10;64.10;;;24.52;58.73;96049.09;4849739;29;20306;-87
2023/08/26 16:31:46;;;;;;;;;;;25.10;64.10;;;24.52;58.91;96045.50;4834289;29;19929;-87
2023/08/26 16:34:18;;;;;;;;;;;25.10;64.20;;;24.53;58.86;96049.91;4826519;29;19936;-86
2023/08/26 16:36:55;;;;;;;;;;;25.10;64.20;;;24.52;58.60;96054.69;4842187;29;19928;-87
2023/08/26 16:39:23;;;;;;;;;;;25.10;64.30;;;24.51;58.69;96050.28;4834260;29;20453;-87
2023/08/26 16:41:57;;;;;;;;;;;25.00;64.30;;;24.50;58.76;96051.44;4834240;29;19935;-87
2023/08/26 16:44:25;;;;;;;;;;;25.00;64.40;;;24.49;58.81;96052.63;4825316;29;19928;-87
2023/08/26 16:46:55;;;;;;;;;;;25.00;64.40;;;24.50;58.71;96048.66;4834322;29;20329;-87
2023/08/26 16:49:43;;;;;;;;;;;25.00;64.40;;;24.50;58.89;96042.25;4849635;29;19932;-87
2023/08/26 16:52:14;;;;;;;;;;;25.00;64.50;;;24.49;58.85;96052.63;4834343;29;19928;-87
2023/08/26 16:54:44;;;;;;;;;;;25.00;64.60;;;24.49;58.66;96049.81;4834081;29;19928;-87
2023/08/26 16:57:14;;;;;;;;;;;25.00;64.50;;;24.48;58.74;96051.00;4834064;29;19936;-87
2023/08/26 16:59:43;;;;;;;;;;;25.00;64.70;;;24.50;58.86;96054.25;4826917;29;20393;-87
2023/08/26 17:02:14;;;;;;;;;;;25.00;64.70;;;24.48;59.57;96047.41;4833952;29;19928;-87
2023/08/26 17:04:47;;;;;;;;;;;25.00;65.60;;;24.49;59.31;96052.63;4827300;29;19932;-87
2023/08/26 17:07:15;;;;;;;;;;;25.00;64.90;;;24.48;60.26;96048.19;4849549;29;19932;-87
2023/08/26 17:09:44;;;;;;;;;;;25.00;66.00;;;24.48;60.02;96053.78;4834167;29;19928;-87
2023/08/26 17:12:12;;;;;;;;;;;25.00;65.90;;;24.46;60.17;96053.34;4833679;29;19928;-87
2023/08/26 17:14:41;;;;;;;;;;;25.00;65.90;;;24.45;60.00;96059.31;4841483;29;20033;-87
2023/08/26 17:17:09;;;;;;;;;;;25.00;66.00;;;24.43;59.98;96056.91;4849342;29;19928;-87
2023/08/26 17:19:39;;;;;;;;;;;25.00;66.00;;;24.41;60.35;96059.25;4833942;29;19936;-87
2023/08/26 17:22:09;;;;;;;;;;;25.00;66.20;;;24.37;60.49;96058.34;4833602;29;19935;-87
2023/08/26 17:24:40;;;;;;;;;;;24.90;66.10;;;24.34;60.27;96059.06;4833852;29;19928;-87
2023/08/26 17:27:10;;;;;;;;;;;24.80;66.10;;;24.31;60.04;96059.81;4833669;29;19928;-87
2023/08/26 17:29:38;;;;;;;;;;;24.80;66.20;;;24.28;60.54;96066.13;4830001;29;19928;-87
2023/08/26 17:32:11;;;;;;;;;;;24.80;66.60;;;24.27;60.74;96064.50;4825149;29;19928;-87
2023/08/26 17:34:41;;;;;;;;;;;24.80;66.80;;;24.24;60.84;96063.25;4848651;29;19935;-87
2023/08/26 17:37:16;;;;;;;;;;;24.70;67.00;;;24.21;60.38;96072.38;4833535;29;19951;-87
2023/08/26 17:39:47;;;;;;;;;;;24.70;66.60;;;24.18;60.48;96068.31;4819087;29;19955;-87
2023/08/26 17:42:15;;;;;;;;;;;24.70;66.60;;;24.18;60.22;96073.09;4825984;29;19933;-87
2023/08/26 17:44:47;;;;;;;;;;;24.70;66.60;;;24.15;60.35;96077.44;4831524;29;19935;-86
2023/08/26 17:47:20;;;;;;;;;;;24.60;66.50;;;24.09;60.24;96075.25;4833402;29;19936;-87
2023/08/26 17:49:48;;;;;;;;;;;24.60;66.40;;;24.05;60.33;96075.19;4826410;29;20429;-87
2023/08/26 17:52:21;;;;;;;;;;;24.50;66.40;;;24.02;60.63;96081.50;4833361;29;19936;-87
2023/08/26 17:54:52;;;;;;;;;;;24.50;66.80;;;23.99;60.35;96073.81;4834769;29;19935;-87
2023/08/26 17:57:23;;;;;;;;;;;24.50;66.80;;;23.98;60.55;96081.41;4833438;29;19928;-87
2023/08/26 17:59:51;;;;;;;;;;;24.50;66.80;;;24.00;60.41;96083.84;4814211;29;19929;-87
2023/08/26 18:02:21;;;;;;;;;;;24.50;66.80;;;24.01;60.51;96079.88;4829769;29;19928;-87
2023/08/26 18:04:49;;;;;;;;;;;24.50;66.60;;;24.02;60.38;96075.91;4848325;29;19929;-87
2023/08/26 18:07:22;;;;;;;;;;;24.50;66.60;;;24.02;60.24;96087.09;4833500;29;19935;-87
2023/08/26 18:09:50;;;;;;;;;;;24.50;66.20;;;24.00;60.49;96078.25;4848492;29;19928;-87
2023/08/26 18:12:19;;;;;;;;;;;24.50;66.40;;;24.00;60.48;96078.25;4848148;29;19928;-87
2023/08/26 18:14:48;;;;;;;;;;;24.50;66.50;;;23.99;59.84;96091.44;4826909;29;19951;-87
2023/08/26 18:17:18;;;;;;;;;;;24.50;66.00;;;23.97;60.18;96084.56;4833222;29;20381;-87
2023/08/26 18:19:48;;;;;;;;;;;24.40;66.10;;;23.92;60.12;96076.41;4848633;29;19929;-87
2023/08/26 18:22:16;;;;;;;;;;;24.50;66.30;;;23.90;60.45;96085.97;4848298;29;20313;-87
2023/08/26 18:24:48;;;;;;;;;;;24.40;66.30;;;23.89;60.56;96089.94;4840932;29;19935;-86
2023/08/26 18:27:18;;;;;;;;;;;24.40;66.40;;;23.88;60.47;96085.53;4833041;29;19935;-87
2023/08/26 18:29:46;;;;;;;;;;;24.40;66.40;;;23.90;60.15;96087.94;4833228;29;20286;-87
2023/08/26 18:32:15;;;;;;;;;;;24.40;66.30;;;23.89;60.27;96089.94;4832564;29;19928;-87
2023/08/26 18:34:46;;;;;;;;;;;24.40;66.20;;;23.87;60.26;96091.50;4833406;29;19962;-87
2023/08/26 18:37:15;;;;;;;;;;;24.30;66.40;;;23.86;60.30;96096.25;4833237;29;20408;-86
2023/08/26 18:39:43;;;;;;;;;;;24.30;66.50;;;23.85;60.52;96096.63;4832952;29;20417;-86
2023/08/26 18:42:18;;;;;;;;;;;24.30;66.60;;;23.86;60.43;96101.84;4832685;29;19935;-87
2023/08/26 18:44:47;;;;;;;;;;;24.30;66.50;;;23.87;60.59;96094.28;4850154;29;19932;-86
2023/08/26 18:47:16;;;;;;;;;;;24.30;66.40;;;23.86;60.60;96089.88;4821147;29;20520;-87
2023/08/26 18:49:44;;;;;;;;;;;24.40;66.40;;;23.85;60.27;96099.41;4835936;29;19939;-87
2023/08/26 18:52:12;;;;;;;;;;;24.30;66.20;;;23.85;60.22;96094.63;4850969;29;20037;-87
2023/08/26 18:54:42;;;;;;;;;;;24.30;66.10;;;23.81;60.27;96090.13;4851173;29;19980;-86
2023/08/26 18:57:11;;;;;;;;;;;24.30;66.30;;;23.81;60.45;96093.75;4850944;29;19928;-87
2023/08/26 18:59:41;;;;;;;;;;;24.30;66.30;;;23.80;60.67;96094.09;4835933;29;19928;-87
2023/08/26 19:02:09;;;;;;;;;;;24.30;66.30;;;23.80;60.48;96096.88;4835694;29;19937;-87
2023/08/26 19:04:37;;;;;;;;;;;24.30;66.40;;;23.78;60.54;96093.63;4835817;29;19928;-86
2023/08/26 19:07:07;;;;;;;;;;;24.30;66.40;;;23.78;60.41;96088.88;4852693;29;19932;-87
2023/08/26 19:09:36;;;;;;;;;;;24.30;66.30;;;23.80;60.60;96096.88;4836026;29;19928;-87
2023/08/26 19:12:04;;;;;;;;;;;24.30;66.40;;;23.77;60.47;96095.63;4835261;29;19928;-87
2023/08/26 19:14:34;;;;;;;;;;;24.30;66.30;;;23.79;60.43;96090.50;4835734;29;20306;-86
2023/08/26 19:17:06;;;;;;;;;;;24.30;66.30;;;23.78;60.45;96094.47;4835458;29;20417;-86
2023/08/26 19:19:35;;;;;;;;;;;24.30;66.30;;;23.77;60.30;96092.81;4835685;29;19928;-87
2023/08/26 19:22:04;;;;;;;;;;;24.30;66.20;;;23.75;60.39;96101.56;4835417;29;20414;-87
2023/08/26 19:24:32;;;;;;;;;;;24.30;66.10;;;23.72;60.33;96093.09;4835720;29;20283;-87
2023/08/26 19:27:01;;;;;;;;;;;24.20;66.10;;;23.70;60.40;96098.22;4835249;29;19928;-86
2023/08/26 19:29:30;;;;;;;;;;;24.20;66.30;;;23.68;60.60;96095.78;4835262;29;19928;-86
2023/08/26 19:32:02;;;;;;;;;;;24.20;66.30;;;23.67;60.30;96093.38;4835191;29;19928;-87
2023/08/26 19:34:32;;;;;;;;;;;24.20;66.30;;;23.66;60.45;96091.75;4850525;29;20295;-86
2023/08/26 19:37:01;;;;;;;;;;;24.20;66.40;;;23.66;60.37;96091.75;4835194;29;19936;-87
2023/08/26 19:39:29;;;;;;;;;;;24.20;66.30;;;23.67;60.29;96105.34;4835786;29;20305;-86
2023/08/26 19:42:00;;;;;;;;;;;24.20;66.40;;;23.67;60.37;96093.38;4831358;29;20291;-87
2023/08/26 19:44:28;;;;;;;;;;;24.20;66.30;;;23.67;60.30;96094.16;4835167;29;19928;-87
2023/08/26 19:46:57;;;;;;;;;;;24.20;66.30;;;23.66;60.21;96097.34;4834871;29;19928;-87
2023/08/26 19:49:25;;;;;;;;;;;24.20;66.20;;;23.66;60.05;96100.13;4835057;29;20318;-87
2023/08/26 19:51:55;;;;;;;;;;;24.20;66.10;;;23.64;60.54;96096.88;4834610;29;19928;-87
2023/08/26 19:54:23;;;;;;;;;;;24.20;66.20;;;23.62;60.38;96088.03;4834691;29;19935;-87
2023/08/26 19:56:54;;;;;;;;;;;24.20;66.30;;;23.63;60.51;96089.66;4847548;29;19928;-87
2023/08/26 19:59:23;;;;;;;;;;;24.20;66.40;;;23.62;60.39;96086.06;4839505;29;20403;-87
2023/08/26 20:01:51;;;;;;;;;;;24.20;66.30;;;23.62;60.63;96088.03;4823938;29;19929;-87
2023/08/26 20:04:19;;;;;;;;;;;24.10;66.30;;;23.62;60.49;96090.81;4824031;29;20284;-87
2023/08/26 20:06:47;;;;;;;;;;;24.10;66.30;;;23.62;60.22;96093.63;4833683;29;19932;-87
2023/08/26 20:09:17;;;;;;;;;;;24.10;66.30;;;23.63;60.50;96098.03;4835090;29;19928;-87
2023/08/26 20:11:47;;;;;;;;;;;24.10;66.30;;;23.60;60.50;96089.19;4834499;29;19928;-87
2023/08/26 20:14:15;;;;;;;;;;;24.10;66.30;;;23.62;60.20;96088.03;4834763;29;20403;-87
2023/08/26 20:16:44;;;;;;;;;;;24.10;66.20;;;23.61;60.51;96092.81;4834424;29;19936;-87
2023/08/26 20:19:12;;;;;;;;;;;24.10;66.30;;;23.60;60.27;96092.00;4834742;29;19935;-87
2023/08/26 20:21:40;;;;;;;;;;;24.10;66.20;;;23.57;60.29;96087.13;4834151;29;19935;-87
2023/08/26 20:24:09;;;;;;;;;;;24.10;66.20;;;23.59;60.24;96090.38;4834508;29;19928;-87
2023/08/26 20:26:39;;;;;;;;;;;24.10;66.20;;;23.58;60.28;96091.53;4826975;29;20331;-87
2023/08/26 20:29:07;;;;;;;;;;;24.10;66.20;;;23.58;60.53;96099.91;4834695;29;19936;-87
2023/08/26 20:31:36;;;;;;;;;;;24.10;66.10;;;23.58;60.20;96102.72;4834005;29;19928;-87
2023/08/26 20:34:06;;;;;;;;;;;24.10;66.10;;;23.55;60.24;96100.66;4849550;29;19928;-87
2023/08/26 20:36:36;;;;;;;;;;;24.10;66.10;;;23.56;60.30;96104.25;4851239;29;19928;-87
2023/08/26 20:39:05;;;;;;;;;;;24.10;66.10;;;23.54;60.12;96098.19;4834737;29;19932;-87
2023/08/26 20:41:39;;;;;;;;;;;24.10;66.10;;;23.54;60.10;96087.84;4849011;29;19936;-87
2023/08/26 20:44:07;;;;;;;;;;;24.10;66.10;;;23.53;60.11;96089.03;4834536;29;19935;-87
2023/08/26 20:46:42;;;;;;;;;;;24.10;66.20;;;23.50;60.33;96086.94;4834326;29;20414;-87
2023/08/26 20:49:12;;;;;;;;;;;24.10;66.10;;;23.51;60.39;96090.53;4834369;29;19940;-87
2023/08/26 20:51:40;;;;;;;;;;;24.10;66.20;;;23.50;60.35;96095.31;4833899;29;19928;-87
2023/08/26 20:54:09;;;;;;;;;;;24.10;66.20;;;23.48;60.41;96086.47;4834365;29;19928;-87
2023/08/26 20:56:39;;;;;;;;;;;24.00;66.10;;;23.50;60.48;96089.72;4834243;29;19928;-87
2023/08/26 20:59:07;;;;;;;;;;;24.00;66.10;;;23.51;60.16;96102.53;4834083;29;20294;-87
2023/08/26 21:01:36;;;;;;;;;;;24.10;66.30;;;23.50;60.12;96100.91;4850450;29;19935;-87
2023/08/26 21:04:04;;;;;;;;;;;24.00;66.10;;;23.49;60.33;96107.66;4833891;29;19928;-87
2023/08/26 21:06:32;;;;;;;;;;;24.10;66.10;;;23.48;60.09;96106.03;4833300;29;19928;-87
2023/08/26 21:09:01;;;;;;;;;;;24.00;66.00;;;23.48;60.22;96117.22;4849379;29;19929;-87
2023/08/26 21:11:29;;;;;;;;;;;24.00;66.10;;;23.47;60.23;96115.59;4833805;29;19932;-87
2023/08/26 21:13:59;;;;;;;;;;;24.00;66.00;;;23.47;60.23;96112.78;4834033;29;19935;-87
2023/08/26 21:16:29;;;;;;;;;;;24.00;66.00;;;23.44;60.22;96111.53;4848988;29;19935;-87
2023/08/26 21:18:59;;;;;;;;;;;24.00;66.00;;;23.44;60.20;96119.91;4833824;29;20126;-87
2023/08/26 21:21:27;;;;;;;;;;;24.00;66.10;;;23.45;60.17;96115.13;4833355;29;19935;-87
2023/08/26 21:23:55;;;;;;;;;;;24.00;66.00;;;23.45;60.01;96109.53;4849115;29;19929;-87
2023/08/26 21:26:24;;;;;;;;;;;24.00;66.00;;;23.43;60.11;96111.91;4833998;29;20413;-87
2023/08/26 21:28:56;;;;;;;;;;;24.00;65.80;;;23.40;59.94;96112.59;4849001;29;19928;-87
2023/08/26 21:31:26;;;;;;;;;;;24.00;66.00;;;23.39;60.35;96113.78;4848904;29;20309;-87
2023/08/26 21:33:54;;;;;;;;;;;24.00;66.10;;;23.41;60.21;96119.81;4831455;29;19928;-87
2023/08/26 21:36:23;;;;;;;;;;;24.00;66.10;;;23.40;60.10;96124.59;4828433;29;19928;-87
2023/08/26 21:38:54;;;;;;;;;;;24.00;66.00;;;23.38;60.22;96118.53;4834089;29;19928;-87
2023/08/26 21:41:23;;;;;;;;;;;24.00;66.00;;;23.40;60.24;96121.00;4833119;29;19928;-87
2023/08/26 21:43:54;;;;;;;;;;;23.90;66.00;;;23.37;60.20;96128.09;4825942;29;19935;-87
2023/08/26 21:46:24;;;;;;;;;;;23.90;66.00;;;23.36;60.13;96117.28;4825675;29;19935;-87
2023/08/26 21:48:54;;;;;;;;;;;23.90;66.00;;;23.36;60.20;96117.28;4825811;29;19951;-87
2023/08/26 21:51:23;;;;;;;;;;;23.90;66.00;;;23.35;60.05;96105.31;4835240;29;19935;-87
2023/08/26 21:53:51;;;;;;;;;;;23.90;66.00;;;23.34;59.92;96111.22;4845437;29;19935;-87
2023/08/26 21:56:19;;;;;;;;;;;23.90;66.00;;;23.34;60.26;96109.25;4834995;29;19935;-86
2023/08/26 21:58:48;;;;;;;;;;;23.90;65.90;;;23.31;60.21;96103.56;4848152;29;19935;-86
2023/08/26 22:01:16;;;;;;;;;;;23.90;65.90;;;23.33;59.92;96115.19;4832966;29;19940;-87
2023/08/26 22:03:48;;;;;;;;;;;23.90;66.00;;;23.31;60.09;96109.13;4833815;29;19928;-87
2023/08/26 22:06:18;;;;;;;;;;;23.90;66.00;;;23.31;59.98;96109.97;4833232;29;19935;-86
2023/08/26 22:08:46;;;;;;;;;;;23.90;66.00;;;23.32;60.21;96099.59;4848529;29;19928;-86
2023/08/26 22:11:17;;;;;;;;;;;23.90;66.00;;;23.33;59.90;96101.22;4833353;29;19929;-87
2023/08/26 22:13:45;;;;;;;;;;;23.90;66.10;;;23.31;59.91;96109.97;4848292;29;19935;-87
2023/08/26 22:16:13;;;;;;;;;;;23.90;66.00;;;23.32;60.29;96110.75;4833394;29;19935;-87
2023/08/26 22:18:42;;;;;;;;;;;23.90;66.00;;;23.32;60.13;96116.34;4850859;29;19928;-87
2023/08/26 22:21:13;;;;;;;;;;;23.90;65.90;;;23.32;60.10;96116.34;4837089;29;19939;-87
2023/08/26 22:23:43;;;;;;;;;;;23.90;65.90;;;23.30;60.03;96111.13;4851570;29;20399;-87
2023/08/26 22:26:11;;;;;;;;;;;23.90;65.80;;;23.28;60.07;96117.09;4836080;29;19935;-87
2023/08/26 22:28:43;;;;;;;;;;;23.90;65.80;;;23.27;60.20;96112.66;4836045;29;19928;-87
2023/08/26 22:31:12;;;;;;;;;;;23.80;65.80;;;23.27;60.20;96118.25;4851494;29;19928;-88
2023/08/26 22:33:41;;;;;;;;;;;23.80;65.80;;;23.26;60.19;96099.03;4836192;29;19951;-87
2023/08/26 22:36:10;;;;;;;;;;;23.80;65.80;;;23.26;60.04;96099.03;4821317;29;19932;-87
2023/08/26 22:38:38;;;;;;;;;;;23.80;65.80;;;23.23;60.17;96108.94;4836160;29;19929;-87
2023/08/26 22:41:08;;;;;;;;;;;23.80;65.80;;;23.24;60.15;96116.16;4835918;29;19936;-87
2023/08/26 22:43:49;;;;;;;;;;;23.80;65.80;;;23.23;60.07;96114.53;4836904;29;19936;-87
2023/08/26 22:46:20;;;;;;;;;;;23.80;65.80;;;23.21;60.15;96111.28;4836368;29;19928;-87
2023/08/26 22:48:48;;;;;;;;;;;23.80;65.90;;;23.20;60.08;96106.88;4836052;29;19928;-87
2023/08/26 22:51:17;;;;;;;;;;;23.80;65.90;;;23.21;60.16;96108.50;4835590;29;19935;-87
2023/08/26 22:53:45;;;;;;;;;;;23.80;65.80;;;23.21;59.83;96102.91;4851058;29;19928;-87
2023/08/26 22:56:15;;;;;;;;;;;23.80;65.80;;;23.19;60.26;96096.81;4851293;29;20418;-87
2023/08/26 22:58:45;;;;;;;;;;;23.70;65.80;;;23.18;59.91;96100.78;4835662;29;19973;-87
2023/08/26 23:01:13;;;;;;;;;;;23.80;65.70;;;23.18;59.77;96100.78;4820712;29;19957;-88
2023/08/26 23:03:42;;;;;;;;;;;23.80;65.80;;;23.18;59.75;96100.78;4835650;29;19929;-87
2023/08/26 23:06:13;;;;;;;;;;;23.80;65.80;;;23.19;60.05;96096.03;4832460;29;19939;-87
2023/08/26 23:08:42;;;;;;;;;;;23.80;65.80;;;23.18;59.83;96095.19;4832211;29;19928;-87
2023/08/26 23:11:12;;;;;;;;;;;23.80;65.80;;;23.17;60.36;96088.03;4827917;29;19940;-87
2023/08/26 23:13:42;;;;;;;;;;;23.80;65.80;;;23.18;60.10;96089.63;4835515;29;20046;-87
2023/08/26 23:16:10;;;;;;;;;;;23.70;65.80;;;23.17;60.11;96088.03;4835526;29;20310;-87